Time;durP1;ratioP1;P1;durP2;ratioP2;P2;SDS_P1;SDS_P2;PMS_P1;PMS_P2;Temp;Humidity;BMP_temperature;BMP_pressure;BME280_temperature;BME280_humidity;BME280_pressure;Samples;Min_cycle;Max_cycle;Signal;HPM_P1;HPM_P2
2022/08/25 00:00:23;;;;;;;0.93;0.38;;;;;;;28.14;42.92;101391.22;5108973;28;20026;-50
2022/08/25 00:02:51;;;;;;;0.68;0.28;;;;;;;28.22;42.88;101409.69;5108992;28;20026;-48
2022/08/25 00:05:20;;;;;;;3.00;0.20;;;;;;;28.23;42.88;101397.34;5091123;28;20032;-51
2022/08/25 00:07:49;;;;;;;2.47;0.47;;;;;;;28.17;42.92;101400.88;5104643;28;20029;-50
2022/08/25 00:10:17;;;;;;;0.63;0.20;;;;;;;28.14;43.22;101391.22;5095293;28;20386;-50
2022/08/25 00:12:45;;;;;;;0.77;0.30;;;;;;;28.08;43.09;101385.88;5077448;28;20103;-50
2022/08/25 00:15:14;;;;;;;0.70;0.20;;;;;;;28.13;43.01;101389.44;5095592;28;20047;-53
2022/08/25 00:17:43;;;;;;;0.30;0.30;;;;;;;28.08;43.14;101385.88;5095193;28;20051;-50
2022/08/25 00:20:11;;;;;;;1.05;0.30;;;;;;;28.13;42.95;101385.94;5095122;28;20385;-52
2022/08/25 00:22:40;;;;;;;0.73;0.30;;;;;;;28.05;43.08;101392.03;5094995;28;20039;-53
2022/08/25 00:25:09;;;;;;;1.17;0.30;;;;;;;27.97;43.37;101393.75;5094992;28;20455;-49
2022/08/25 00:27:38;;;;;;;2.08;0.35;;;;;;;28.06;42.99;101398.16;5095228;28;20469;-52
2022/08/25 00:30:07;;;;;;;1.05;0.20;;;;;;;28.10;43.04;101401.75;5077272;28;20020;-48
2022/08/25 00:32:36;;;;;;;0.52;0.30;;;;;;;28.27;42.55;101400.03;5094859;28;20055;-48
2022/08/25 00:35:05;;;;;;;0.47;0.35;;;;;;;28.28;42.57;101401.78;5077191;28;20031;-50
2022/08/25 00:37:35;;;;;;;1.48;0.20;;;;;;;28.32;42.38;101397.38;5094962;28;20031;-54
2022/08/25 00:40:04;;;;;;;1.60;0.30;;;;;;;28.11;43.06;101393.84;5095015;28;20024;-51
2022/08/25 00:42:33;;;;;;;1.95;0.30;;;;;;;27.96;43.17;101381.47;5094788;28;20032;-53
2022/08/25 00:45:02;;;;;;;0.30;0.30;;;;;;;28.00;43.27;101390.25;5094800;28;20021;-51
2022/08/25 00:47:30;;;;;;;2.55;0.30;;;;;;;27.96;43.37;101373.56;5094786;28;20477;-51
2022/08/25 00:50:00;;;;;;;2.50;0.22;;;;;;;28.06;43.05;101374.44;5094823;28;20139;-51
2022/08/25 00:52:32;;;;;;;2.58;0.30;;;;;;;28.07;43.14;101370.06;5094840;28;20032;-51
2022/08/25 00:55:06;;;;;;;0.82;0.22;;;;;;;28.05;42.85;101363.03;5094436;28;20024;-52
2022/08/25 00:57:41;;;;;;;0.75;0.40;;;;;;;28.02;43.08;101363.00;5059872;28;20047;-50
2022/08/25 01:00:16;;;;;;;0.40;0.20;;;;;;;28.04;43.26;101353.34;5094611;28;20051;-54
2022/08/25 01:02:47;;;;;;;0.38;0.20;;;;;;;28.04;43.21;101348.06;5094394;28;20050;-52
2022/08/25 01:05:17;;;;;;;1.15;0.22;;;;;;;28.05;43.34;101352.47;5094533;28;20031;-52
2022/08/25 01:07:48;;;;;;;0.85;0.30;;;;;;;28.12;42.85;101350.75;5094206;28;20485;-50
2022/08/25 01:10:18;;;;;;;2.58;0.30;;;;;;;28.08;43.17;101353.34;5094551;28;20020;-50
2022/08/25 01:12:47;;;;;;;0.60;0.30;;;;;;;28.07;43.02;101341.91;5076109;28;20028;-51
2022/08/25 01:18:59;;;;;;;1.00;0.30;;;;;;;28.07;43.19;101338.41;5092029;28;20043;-49
2022/08/25 01:21:30;;;;;;;0.28;0.20;;;;;;;28.02;43.30;101341.91;5093224;28;20056;-49
2022/08/25 01:23:59;;;;;;;0.10;0.10;;;;;;;27.98;42.90;101339.28;5075966;28;20027;-48
2022/08/25 01:26:32;;;;;;;0.20;0.20;;;;;;;28.02;43.19;101335.78;5076048;28;20117;-47
2022/08/25 01:29:46;;;;;;;0.40;0.20;;;;;;;28.03;42.95;101335.75;5093798;28;20551;-52
2022/08/25 01:31:53;;;;;;;0.85;0.20;;;;;;;27.97;43.04;101341.00;5089904;28;20504;-51
2022/08/25 01:34:22;;;;;;;3.03;0.20;;;;;;;27.84;43.79;101336.59;5093623;28;20027;-52
2022/08/25 01:36:51;;;;;;;0.68;0.30;;;;;;;27.83;43.37;101345.38;5093565;28;20024;-53
2022/08/25 01:39:19;;;;;;;2.38;0.50;;;;;;;28.00;43.13;101345.44;5093804;28;20024;-51
2022/08/25 01:41:58;;;;;;;0.77;0.30;;;;;;;27.99;43.15;101343.66;5093798;28;20024;-51
2022/08/25 01:44:27;;;;;;;1.45;0.20;;;;;;;27.92;43.33;101342.78;5093539;28;20043;-50
2022/08/25 01:46:55;;;;;;;0.57;0.20;;;;;;;27.90;43.20;101336.63;5093452;28;20020;-48
2022/08/25 01:49:24;;;;;;;2.05;0.30;;;;;;;27.75;43.63;101327.81;5075142;28;20035;-51
2022/08/25 01:51:57;;;;;;;1.00;0.30;;;;;;;27.63;43.79;101334.78;5093355;28;20024;-51
2022/08/25 01:54:26;;;;;;;0.68;0.30;;;;;;;27.54;43.85;101336.53;5075424;28;20142;-49
2022/08/25 01:56:55;;;;;;;1.45;0.17;;;;;;;27.50;44.14;101318.94;5092565;28;20416;-49
2022/08/25 01:59:24;;;;;;;1.33;0.17;;;;;;;27.49;44.25;101317.19;5093160;28;20418;-51
2022/08/25 02:01:52;;;;;;;2.33;0.38;;;;;;;27.52;44.27;101319.84;5093112;28;20074;-49
2022/08/25 02:04:21;;;;;;;0.73;0.35;;;;;;;27.59;43.89;101307.56;5093226;28;20454;-51
2022/08/25 02:06:49;;;;;;;0.57;0.30;;;;;;;27.73;43.62;101320.75;5093137;28;20027;-51
2022/08/25 02:09:18;;;;;;;0.85;0.28;;;;;;;27.73;43.54;101319.00;5093250;28;20519;-50
2022/08/25 02:11:47;;;;;;;0.60;0.30;;;;;;;27.66;43.48;101333.03;5075065;28;20031;-48
2022/08/25 02:14:17;;;;;;;1.05;0.40;;;;;;;27.69;43.54;101319.88;5092991;28;20036;-49
2022/08/25 02:16:49;;;;;;;1.00;0.20;;;;;;;27.66;43.61;101325.13;5092989;28;20070;-50
2022/08/25 02:19:19;;;;;;;0.98;0.25;;;;;;;27.69;43.84;101340.09;5093010;28;20485;-50
2022/08/25 02:21:48;;;;;;;0.38;0.28;;;;;;;27.82;43.51;101335.72;5092860;28;20114;-48
2022/08/25 02:24:17;;;;;;;2.55;0.35;;;;;;;27.74;43.69;101333.94;5092844;28;20031;-47
2022/08/25 02:26:45;;;;;;;0.43;0.20;;;;;;;27.75;43.47;101332.19;5093000;28;20020;-48
2022/08/25 02:29:15;;;;;;;0.50;0.30;;;;;;;27.78;43.57;101333.97;5092824;28;20094;-47
2022/08/25 02:31:44;;;;;;;0.68;0.25;;;;;;;27.69;43.56;101340.09;5074825;28;20024;-47
2022/08/25 02:34:14;;;;;;;1.27;0.38;;;;;;;27.77;43.33;101334.84;5092641;28;20020;-47
2022/08/25 02:36:42;;;;;;;0.75;0.30;;;;;;;27.71;43.74;101347.13;5092217;28;20031;-51
2022/08/25 02:39:12;;;;;;;0.80;0.35;;;;;;;27.68;43.54;101354.13;5092655;28;20020;-52
2022/08/25 02:41:41;;;;;;;0.55;0.30;;;;;;;27.46;44.40;101347.91;5092718;28;20031;-50
2022/08/25 02:44:10;;;;;;;1.02;0.40;;;;;;;27.48;44.14;101346.13;5092621;28;20515;-48
2022/08/25 02:46:38;;;;;;;2.42;0.50;;;;;;;27.42;44.15;101349.59;5092760;28;20085;-51
2022/08/25 02:49:08;;;;;;;1.23;0.38;;;;;;;27.36;44.36;101353.09;5092329;28;20024;-50
2022/08/25 02:51:36;;;;;;;1.30;0.30;;;;;;;27.44;44.17;101348.75;5092402;28;20069;-49
2022/08/25 02:54:05;;;;;;;0.35;0.35;;;;;;;27.51;44.02;101346.16;5074477;28;20397;-51
2022/08/25 02:56:34;;;;;;;4.28;0.60;;;;;;;27.42;44.21;101349.59;5092333;28;20043;-52
2022/08/25 02:59:03;;;;;;;0.25;0.22;;;;;;;27.49;44.10;101343.53;5073970;28;20020;-51
2022/08/25 03:01:32;;;;;;;6.05;0.40;;;;;;;27.46;44.07;101332.09;5092580;28;20024;-52
2022/08/25 03:04:01;;;;;;;1.13;0.35;;;;;;;27.58;43.90;101330.38;5091965;28;21015;-52
2022/08/25 03:06:29;;;;;;;3.92;0.40;;;;;;;27.57;44.00;101338.28;5092123;28;20077;-50
2022/08/25 03:08:58;;;;;;;1.17;0.45;;;;;;;27.54;43.93;101351.44;5092297;28;20500;-52
2022/08/25 03:11:27;;;;;;;3.70;0.55;;;;;;;27.40;44.37;101354.88;5092461;28;20080;-47
2022/08/25 03:13:56;;;;;;;2.33;0.77;;;;;;;27.49;43.98;101353.16;5074334;28;20047;-52
2022/08/25 03:16:25;;;;;;;1.10;0.60;;;;;;;27.52;43.92;101363.72;5091947;28;20475;-52
2022/08/25 03:18:53;;;;;;;0.30;0.30;;;;;;;27.25;44.71;101366.19;5091920;28;20473;-52
2022/08/25 03:21:22;;;;;;;1.17;0.30;;;;;;;27.28;44.64;101360.09;5092407;28;20016;-52
2022/08/25 03:23:51;;;;;;;0.77;0.50;;;;;;;27.29;44.60;101367.13;5092383;28;20069;-51
2022/08/25 03:27:01;;;;;;;0.60;0.30;;;;;;;27.37;44.46;101365.38;5091792;28;20020;-51
2022/08/25 03:29:07;;;;;;;3.15;0.38;;;;;;;27.41;44.23;101371.53;5085322;28;20055;-49
2022/08/25 03:31:36;;;;;;;1.55;0.45;;;;;;;27.35;44.44;101372.41;5091850;28;20454;-49
2022/08/25 03:34:05;;;;;;;1.02;0.63;;;;;;;27.32;44.32;101364.47;5092227;28;20075;-51
2022/08/25 03:36:33;;;;;;;1.13;0.45;;;;;;;27.38;44.19;101368.91;5092038;28;20028;-50
2022/08/25 03:39:02;;;;;;;0.70;0.57;;;;;;;27.39;44.29;101370.66;5091875;28;20051;-50
2022/08/25 03:41:32;;;;;;;1.35;0.43;;;;;;;27.33;44.31;101378.53;5092176;28;20008;-50
2022/08/25 03:44:02;;;;;;;0.80;0.30;;;;;;;27.34;44.51;101381.16;5094245;28;20024;-51
2022/08/25 03:46:33;;;;;;;1.77;0.50;;;;;;;27.46;44.09;101374.25;5095669;28;20024;-49
2022/08/25 03:49:02;;;;;;;1.60;0.40;;;;;;;27.46;44.14;101376.91;5095907;28;20016;-51
2022/08/25 03:51:34;;;;;;;2.47;0.40;;;;;;;27.40;44.26;101373.31;5095991;28;20028;-50
2022/08/25 03:54:03;;;;;;;1.08;0.20;;;;;;;27.45;44.03;101375.97;5095860;28;20043;-52
2022/08/25 03:56:32;;;;;;;1.27;0.52;;;;;;;27.45;44.07;101381.22;5076981;28;20059;-49
2022/08/25 03:59:00;;;;;;;2.08;0.50;;;;;;;27.36;44.21;101368.91;5095486;28;20475;-52
2022/08/25 04:01:29;;;;;;;3.20;0.20;;;;;;;27.39;44.25;101371.56;5095733;28;20031;-51
2022/08/25 04:03:58;;;;;;;1.17;0.55;;;;;;;27.41;43.92;101367.16;5095754;28;20024;-50
2022/08/25 04:06:27;;;;;;;0.60;0.30;;;;;;;27.47;44.09;101365.47;5095431;28;20028;-51
2022/08/25 04:08:57;;;;;;;0.40;0.30;;;;;;;27.57;43.74;101354.09;5095461;28;20465;-52
2022/08/25 04:11:26;;;;;;;0.88;0.40;;;;;;;27.52;43.81;101358.47;5095376;28;20469;-51
2022/08/25 04:13:57;;;;;;;2.22;0.35;;;;;;;27.48;44.01;101359.31;5095580;28;20118;-51
2022/08/25 04:16:30;;;;;;;0.20;0.20;;;;;;;27.40;43.88;101356.59;5095376;28;20538;-50
2022/08/25 04:18:59;;;;;;;0.60;0.30;;;;;;;27.42;44.32;101361.03;5095256;28;20116;-51
2022/08/25 04:21:28;;;;;;;0.73;0.50;;;;;;;27.34;44.46;101351.34;5095368;28;20016;-51
2022/08/25 04:23:58;;;;;;;0.68;0.40;;;;;;;27.21;44.66;101358.28;5095476;28;20035;-48
2022/08/25 04:26:33;;;;;;;0.77;0.30;;;;;;;27.25;44.60;101354.81;5094893;28;20020;-48
2022/08/25 04:29:03;;;;;;;0.77;0.50;;;;;;;27.30;44.42;101355.72;5095759;28;20074;-48
2022/08/25 04:31:32;;;;;;;3.35;0.50;;;;;;;27.31;44.36;101357.44;5095167;28;20016;-47
2022/08/25 04:34:03;;;;;;;0.47;0.30;;;;;;;27.21;44.74;101358.28;5094927;28;20024;-51
2022/08/25 04:36:33;;;;;;;1.60;0.50;;;;;;;27.25;44.54;101339.84;5095007;28;20488;-48
2022/08/25 04:39:01;;;;;;;0.85;0.40;;;;;;;27.26;44.79;101351.28;5095613;28;20032;-48
2022/08/25 04:41:30;;;;;;;1.02;0.38;;;;;;;27.19;44.64;101341.59;5077334;28;20057;-50
2022/08/25 04:44:00;;;;;;;2.45;0.45;;;;;;;27.12;44.95;101338.03;5076618;28;20384;-50
2022/08/25 04:46:31;;;;;;;0.65;0.40;;;;;;;27.26;44.65;101332.84;5094920;28;20028;-52
2022/08/25 04:49:01;;;;;;;0.63;0.20;;;;;;;27.26;44.48;101336.34;5094749;28;20546;-51
2022/08/25 04:51:35;;;;;;;0.88;0.40;;;;;;;27.24;44.70;101338.09;5094721;28;20059;-51
2022/08/25 04:54:06;;;;;;;1.10;0.63;;;;;;;27.25;44.69;101339.00;5094445;28;20071;-51
2022/08/25 04:56:36;;;;;;;2.10;0.28;;;;;;;27.24;44.56;101338.09;5094506;28;20544;-52
2022/08/25 04:59:08;;;;;;;1.73;0.40;;;;;;;27.05;45.17;101337.13;5094553;28;20500;-52
2022/08/25 05:01:37;;;;;;;0.40;0.20;;;;;;;27.05;45.26;101320.47;5094587;28;20021;-51
2022/08/25 05:04:07;;;;;;;0.50;0.30;;;;;;;26.96;45.40;101337.09;5094372;28;20028;-51
2022/08/25 05:06:36;;;;;;;3.13;0.40;;;;;;;26.98;45.25;101337.94;5094258;28;20039;-50
2022/08/25 05:09:05;;;;;;;2.88;0.30;;;;;;;27.05;45.05;101341.53;5094248;28;20028;-52
2022/08/25 05:11:33;;;;;;;0.50;0.20;;;;;;;27.04;45.37;101334.50;5094608;28;20470;-52
2022/08/25 05:14:03;;;;;;;1.45;0.30;;;;;;;27.11;45.01;101345.06;5094127;28;20024;-52
2022/08/25 05:16:31;;;;;;;0.82;0.20;;;;;;;27.01;45.33;101345.00;5093915;28;20024;-51
2022/08/25 05:19:00;;;;;;;0.55;0.22;;;;;;;26.85;45.39;101334.38;5075802;28;20028;-50
2022/08/25 05:21:29;;;;;;;1.45;0.20;;;;;;;26.95;45.20;101335.31;5094653;28;20025;-51
2022/08/25 05:23:58;;;;;;;0.73;0.20;;;;;;;27.10;44.93;101353.84;5075579;28;20114;-52
2022/08/25 05:26:29;;;;;;;0.85;0.30;;;;;;;26.97;45.26;101338.84;5093826;28;20031;-53
2022/08/25 05:28:59;;;;;;;0.75;0.20;;;;;;;26.98;45.22;101352.00;5093683;28;20031;-50
2022/08/25 05:31:28;;;;;;;1.15;0.25;;;;;;;27.09;45.00;101348.56;5093895;28;20039;-49
2022/08/25 05:33:57;;;;;;;1.17;0.35;;;;;;;27.14;44.70;101350.34;5094020;28;20028;-50
2022/08/25 05:36:28;;;;;;;1.20;0.25;;;;;;;26.87;45.19;101347.53;5093794;28;20032;-52
2022/08/25 05:38:56;;;;;;;3.05;0.20;;;;;;;26.97;45.27;101355.50;5093944;28;20020;-50
2022/08/25 05:41:29;;;;;;;0.73;0.28;;;;;;;26.89;45.32;101362.47;5094041;28;20016;-51
2022/08/25 05:43:57;;;;;;;3.10;0.43;;;;;;;26.99;45.22;101352.88;5093269;28;20024;-50
2022/08/25 05:46:26;;;;;;;0.22;0.10;;;;;;;26.97;45.25;101365.19;5093556;28;20032;-49
2022/08/25 05:48:55;;;;;;;5.88;0.20;;;;;;;27.07;45.10;101360.81;5093458;28;20032;-49
2022/08/25 05:51:24;;;;;;;3.15;0.45;;;;;;;27.10;44.65;101360.84;5093519;28;20103;-52
2022/08/25 05:53:52;;;;;;;1.33;0.15;;;;;;;27.19;44.25;101371.44;5093429;28;20032;-51
2022/08/25 05:56:21;;;;;;;1.27;0.28;;;;;;;27.10;44.68;101371.38;5093121;28;20046;-50
2022/08/25 05:58:50;;;;;;;1.17;0.15;;;;;;;27.07;44.80;101380.16;5093398;28;20055;-51
2022/08/25 06:04:09;;;;;;;0.15;0.10;;;;;;;26.97;44.86;101391.50;5081902;28;20093;-52
2022/08/25 06:06:38;;;;;;;0.47;0.20;;;;;;;27.02;44.89;101402.94;5092513;28;20055;-50
2022/08/25 06:09:08;;;;;;;1.02;0.13;;;;;;;27.00;44.77;101412.56;5093207;28;20515;-52
2022/08/25 06:11:38;;;;;;;0.75;0.28;;;;;;;27.02;44.73;101410.81;5093068;28;20028;-52
2022/08/25 06:14:07;;;;;;;3.03;0.30;;;;;;;27.08;44.68;101407.34;5092929;28;20030;-50
2022/08/25 06:16:37;;;;;;;1.08;0.20;;;;;;;27.05;44.65;101412.63;5093025;28;20024;-48
2022/08/25 06:19:06;;;;;;;0.68;0.20;;;;;;;27.04;44.83;101422.25;5092484;28;20077;-48
2022/08/25 06:21:37;;;;;;;5.28;0.20;;;;;;;27.04;44.72;101424.88;5092772;28;20100;-49
2022/08/25 06:24:06;;;;;;;1.55;0.20;;;;;;;27.06;44.42;101425.78;5092804;28;20058;-48
2022/08/25 06:26:35;;;;;;;0.30;0.20;;;;;;;27.02;44.78;101441.56;5092769;28;20056;-48
2022/08/25 06:29:04;;;;;;;2.65;0.30;;;;;;;26.94;44.94;101444.13;5092967;28;20020;-49
2022/08/25 06:31:32;;;;;;;3.70;0.40;;;;;;;27.01;44.83;101452.97;5092588;28;20065;-48
2022/08/25 06:34:01;;;;;;;3.85;0.40;;;;;;;27.09;44.40;101461.78;5092780;28;20093;-47
2022/08/25 06:36:29;;;;;;;3.25;0.20;;;;;;;27.12;44.54;101460.06;5092662;28;20020;-48
2022/08/25 06:38:58;;;;;;;4.82;0.40;;;;;;;27.12;44.49;101461.81;5092687;28;20024;-51
2022/08/25 06:41:26;;;;;;;2.65;0.30;;;;;;;27.17;44.32;101470.63;5092369;28;20023;-49
2022/08/25 06:43:54;;;;;;;2.17;0.20;;;;;;;27.24;44.10;101482.09;5071725;28;20090;-51
2022/08/25 06:46:25;;;;;;;0.98;0.25;;;;;;;27.25;43.99;101482.09;5073793;28;20477;-52
2022/08/25 06:48:55;;;;;;;5.32;0.47;;;;;;;27.11;44.35;101489.91;5092446;28;20039;-51
2022/08/25 06:51:25;;;;;;;0.88;0.20;;;;;;;27.02;44.55;101489.81;5074207;28;20016;-48
2022/08/25 06:53:54;;;;;;;0.95;0.30;;;;;;;26.99;44.88;101485.41;5092530;28;20023;-49
2022/08/25 06:56:22;;;;;;;2.65;0.60;;;;;;;27.06;44.59;101491.63;5074448;28;20044;-51
2022/08/25 06:58:51;;;;;;;3.22;0.40;;;;;;;27.04;44.69;101497.75;5092177;28;20089;-52
2022/08/25 07:01:24;;;;;;;0.95;0.20;;;;;;;27.12;44.53;101501.31;5074452;28;20475;-52
2022/08/25 07:03:56;;;;;;;4.65;0.30;;;;;;;26.99;44.79;101501.22;5092516;28;20023;-51
2022/08/25 07:06:25;;;;;;;3.20;0.22;;;;;;;26.97;44.97;101496.81;5092411;28;20428;-51
2022/08/25 07:08:54;;;;;;;3.65;0.47;;;;;;;26.91;44.99;101494.13;5092225;28;20028;-48
2022/08/25 07:11:22;;;;;;;1.55;0.47;;;;;;;26.88;45.21;101501.97;5091573;28;20051;-53
2022/08/25 07:13:51;;;;;;;4.38;0.32;;;;;;;26.94;44.93;101507.31;5091940;28;20036;-50
2022/08/25 07:16:20;;;;;;;0.80;0.30;;;;;;;27.06;44.78;101502.16;5092038;28;20043;-51
2022/08/25 07:18:49;;;;;;;3.33;0.25;;;;;;;27.08;44.88;101502.16;5094428;28;20032;-51
2022/08/25 07:21:18;;;;;;;1.48;0.30;;;;;;;26.99;44.86;101506.47;5096296;28;20024;-52
2022/08/25 07:23:46;;;;;;;1.52;0.30;;;;;;;26.96;44.92;101506.44;5096369;28;20024;-47
2022/08/25 07:26:23;;;;;;;5.43;0.38;;;;;;;27.06;44.75;101520.59;5096279;28;20027;-51
2022/08/25 07:28:52;;;;;;;6.38;0.40;;;;;;;26.99;45.02;101516.13;5095768;28;20047;-52
2022/08/25 07:31:20;;;;;;;3.42;0.40;;;;;;;27.01;44.97;101517.00;5096115;28;20099;-52
2022/08/25 07:36:36;;;;;;;2.28;0.77;;;;;;;27.07;44.99;101518.81;5085219;28;20032;-51
2022/08/25 07:39:05;;;;;;;2.17;0.30;;;;;;;27.05;45.05;101520.59;5096169;28;20024;-51
2022/08/25 07:41:36;;;;;;;2.72;0.40;;;;;;;27.06;45.16;101523.22;5095440;28;20027;-51
2022/08/25 07:44:06;;;;;;;1.15;0.38;;;;;;;27.04;44.73;101527.59;5095930;28;20408;-51
2022/08/25 07:46:34;;;;;;;1.00;0.20;;;;;;;27.13;44.97;101526.78;5077872;28;20040;-53
2022/08/25 07:49:03;;;;;;;0.55;0.30;;;;;;;27.01;45.39;101531.94;5095671;28;20107;-51
2022/08/25 07:51:31;;;;;;;5.05;0.45;;;;;;;27.01;45.67;101530.19;5095638;28;20477;-51
2022/08/25 07:54:00;;;;;;;3.17;0.55;;;;;;;27.09;45.43;101530.25;5077480;28;20423;-51
2022/08/25 07:56:28;;;;;;;1.25;0.30;;;;;;;27.11;45.23;101534.69;5095562;28;20501;-52
2022/08/25 07:58:57;;;;;;;0.90;0.30;;;;;;;27.09;45.29;101538.16;5095769;28;20032;-51
2022/08/25 08:01:26;;;;;;;2.42;0.28;;;;;;;27.09;45.24;101532.88;5077815;28;20055;-52
2022/08/25 08:03:54;;;;;;;2.95;0.40;;;;;;;27.12;45.26;101532.91;5095481;28;20469;-51
2022/08/25 08:06:24;;;;;;;1.52;0.50;;;;;;;27.23;44.85;101539.16;5095140;28;20024;-50
2022/08/25 08:08:54;;;;;;;2.15;0.50;;;;;;;27.14;45.08;101545.22;5095745;28;20032;-51
2022/08/25 08:11:25;;;;;;;1.65;0.38;;;;;;;27.06;45.41;101544.28;5095259;28;20024;-51
2022/08/25 08:13:55;;;;;;;6.03;0.35;;;;;;;27.07;45.37;101546.06;5095103;28;20119;-48
2022/08/25 08:16:26;;;;;;;1.02;0.30;;;;;;;27.06;45.63;101543.38;5095189;28;20118;-49
2022/08/25 08:18:55;;;;;;;1.65;0.10;;;;;;;27.08;45.41;101547.81;5094746;28;20028;-51
2022/08/25 08:21:26;;;;;;;2.92;0.40;;;;;;;26.97;45.60;101541.56;5094992;28;20020;-50
2022/08/25 08:23:55;;;;;;;2.80;0.47;;;;;;;27.10;45.20;101542.56;5095183;28;20016;-50
2022/08/25 08:26:24;;;;;;;3.83;0.55;;;;;;;26.93;45.47;101531.88;5094767;28;20473;-49
2022/08/25 08:28:53;;;;;;;1.17;0.57;;;;;;;27.11;45.32;101555.75;5094471;28;20028;-48
2022/08/25 08:31:25;;;;;;;2.00;0.80;;;;;;;27.14;45.32;101554.88;5076622;28;20104;-50
2022/08/25 08:33:55;;;;;;;1.33;0.35;;;;;;;27.24;45.14;101563.75;5077804;28;20080;-49
2022/08/25 08:36:24;;;;;;;3.15;0.75;;;;;;;27.33;44.86;101569.09;5094782;28;20027;-48
2022/08/25 08:38:53;;;;;;;3.53;0.40;;;;;;;27.31;44.51;101568.19;5094899;28;20485;-47
2022/08/25 08:42:31;;;;;;;1.65;0.32;;;;;;;27.39;44.69;101574.41;5095033;28;20050;-48
2022/08/25 08:44:46;;;;;;;1.45;0.35;;;;;;;27.43;44.88;101573.56;5076900;28;20028;-49
2022/08/25 08:47:54;;;;;;;1.17;0.40;;;;;;;27.50;44.50;101576.28;5094693;28;20103;-51
2022/08/25 08:50:42;;;;;;;0.80;0.30;;;;;;;27.55;44.59;101575.44;5071636;28;20032;-52
2022/08/25 08:53:15;;;;;;;1.77;0.47;;;;;;;27.55;44.43;101572.78;5094459;28;20028;-53
2022/08/25 08:55:48;;;;;;;0.88;0.47;;;;;;;27.55;44.48;101575.44;5094682;28;20035;-51
2022/08/25 08:58:19;;;;;;;1.65;0.30;;;;;;;27.51;44.79;101572.78;5094279;28;20054;-52
2022/08/25 09:00:51;;;;;;;1.60;0.45;;;;;;;27.54;44.59;101586.88;5094375;28;20028;-52
2022/08/25 09:03:39;;;;;;;3.08;0.70;;;;;;;27.53;44.69;101594.75;5059893;28;20119;-51
2022/08/25 09:06:23;;;;;;;2.83;0.40;;;;;;;27.65;44.29;101596.59;5076499;28;20032;-51
2022/08/25 09:08:51;;;;;;;3.38;0.73;;;;;;;27.56;44.57;101593.00;5094457;28;20020;-51
2022/08/25 09:11:23;;;;;;;0.85;0.28;;;;;;;27.65;44.45;101608.00;5094164;28;20024;-49
2022/08/25 09:14:11;;;;;;;1.83;0.40;;;;;;;27.62;44.55;101604.47;5076164;28;20053;-51
2022/08/25 09:17:05;;;;;;;1.30;0.38;;;;;;;27.71;44.24;101604.56;5068688;28;20040;-52
2022/08/25 09:19:57;;;;;;;1.25;0.40;;;;;;;27.64;44.51;101606.25;5094271;28;20430;-52
2022/08/25 09:22:52;;;;;;;1.83;0.50;;;;;;;27.70;44.27;101610.72;5085565;28;20111;-51
2022/08/25 09:25:32;;;;;;;1.67;0.40;;;;;;;27.73;44.20;101601.06;5068737;28;20062;-52
2022/08/25 09:28:31;;;;;;;2.97;0.40;;;;;;;27.69;44.18;101604.53;5094150;28;20122;-52
2022/08/25 09:31:01;;;;;;;1.23;0.40;;;;;;;27.72;44.16;101609.84;5056128;28;20036;-51
2022/08/25 09:33:32;;;;;;;1.88;0.40;;;;;;;27.74;44.11;101607.19;5076067;28;20027;-52
2022/08/25 09:36:01;;;;;;;1.67;0.30;;;;;;;27.75;43.96;101615.13;5093457;28;20023;-52
2022/08/25 09:38:30;;;;;;;1.23;0.30;;;;;;;27.70;43.96;101611.56;5075719;28;20024;-52
2022/08/25 09:41:01;;;;;;;2.92;0.73;;;;;;;27.78;43.93;101609.00;5092636;28;20028;-52
2022/08/25 09:43:31;;;;;;;2.08;0.50;;;;;;;27.73;44.11;101605.44;5093524;28;20110;-51
2022/08/25 09:46:03;;;;;;;1.30;0.40;;;;;;;27.67;44.36;101611.53;5093564;28;20028;-50
2022/08/25 09:48:38;;;;;;;1.73;0.40;;;;;;;27.77;44.12;101616.91;5058850;28;20027;-49
2022/08/25 09:51:28;;;;;;;4.88;0.32;;;;;;;27.77;44.12;101612.50;5093649;28;20028;-52
2022/08/25 09:54:17;;;;;;;3.90;0.40;;;;;;;27.80;44.12;101614.28;5093623;28;20030;-52
2022/08/25 09:56:55;;;;;;;4.88;1.13;;;;;;;27.82;44.05;101612.53;5086025;28;20040;-52
2022/08/25 09:59:33;;;;;;;3.70;0.60;;;;;;;27.74;44.24;101618.66;5075313;28;20054;-52
2022/08/25 10:02:04;;;;;;;3.33;0.80;;;;;;;27.73;44.10;101619.50;5093409;28;20103;-50
2022/08/25 10:07:59;;;;;;;2.47;0.50;;;;;;;27.84;43.76;101629.25;5091365;28;20063;-50
2022/08/25 10:13:52;;;;;;;5.35;0.60;;;;;;;27.86;43.53;101630.13;5092007;28;20066;-50
2022/08/25 10:16:31;;;;;;;5.00;1.55;;;;;;;27.80;43.60;101638.88;5075217;28;20113;-51
2022/08/25 10:19:08;;;;;;;6.35;1.73;;;;;;;27.89;43.40;101628.41;5093001;28;20028;-47
2022/08/25 10:21:39;;;;;;;4.85;1.35;;;;;;;27.87;43.37;101635.44;5093098;28;20381;-51
2022/08/25 10:24:09;;;;;;;5.95;1.05;;;;;;;27.75;43.53;101625.69;5092639;28;20362;-49
2022/08/25 10:26:57;;;;;;;9.38;1.38;;;;;;;27.86;43.27;101645.97;5092922;28;20038;-48
2022/08/25 10:29:31;;;;;;;3.83;0.90;;;;;;;27.89;43.41;101641.59;5093075;28;20020;-48
2022/08/25 10:32:05;;;;;;;6.57;1.27;;;;;;;27.83;43.68;101649.47;5074347;28;20381;-48
2022/08/25 10:34:54;;;;;;;13.17;3.10;;;;;;;27.86;43.43;101641.59;5075088;28;20085;-47
2022/08/25 10:38:00;;;;;;;10.15;1.80;;;;;;;27.87;43.14;101640.72;5092513;28;20036;-48
2022/08/25 10:40:36;;;;;;;14.10;3.40;;;;;;;27.92;43.25;101643.38;5083478;28;20032;-48
2022/08/25 10:43:26;;;;;;;10.43;3.03;;;;;;;27.90;43.19;101642.47;5092976;28;20050;-50
2022/08/25 10:46:11;;;;;;;12.77;2.38;;;;;;;27.93;43.14;101647.78;5092448;28;20496;-48
2022/08/25 10:49:09;;;;;;;8.00;1.77;;;;;;;27.93;43.20;101645.16;5075009;28;20060;-53
2022/08/25 10:51:47;;;;;;;5.88;1.67;;;;;;;27.97;43.39;101648.69;5087941;28;20083;-53
2022/08/25 10:54:37;;;;;;;6.35;1.58;;;;;;;27.98;43.19;101647.81;5075239;28;20032;-51
2022/08/25 10:57:17;;;;;;;5.88;0.98;;;;;;;27.90;43.23;101643.34;5070681;28;20053;-52
2022/08/25 10:59:47;;;;;;;2.50;0.70;;;;;;;27.83;43.07;101640.66;5071236;28;20025;-52
2022/08/25 11:02:37;;;;;;;2.58;0.85;;;;;;;27.90;43.09;101642.47;5072345;28;20492;-51
2022/08/25 11:05:12;;;;;;;2.95;0.90;;;;;;;27.96;43.01;101646.91;5068679;28;20048;-53
2022/08/25 11:07:42;;;;;;;;;;;;;;;27.96;42.98;101646.91;5071529;28;20059;-51
2022/08/25 11:10:18;;;;;;;3.13;0.75;;;;;;;27.96;42.98;101639.00;5071072;28;20285;-51
2022/08/25 11:12:51;;;;;;;5.90;1.13;;;;;;;28.01;42.79;101635.50;5072181;28;20054;-51
2022/08/25 11:15:42;;;;;;;8.00;0.90;;;;;;;27.98;42.28;101640.75;5071045;28;20020;-49
2022/08/25 11:18:14;;;;;;;10.60;1.48;;;;;;;28.04;42.73;101638.19;5068497;28;20058;-52
2022/08/25 11:20:53;;;;;;;8.75;1.55;;;;;;;28.07;42.47;101644.34;5071102;28;20078;-51
2022/08/25 11:23:32;;;;;;;9.18;1.58;;;;;;;28.01;42.61;101627.59;5054017;28;20021;-53
2022/08/25 11:26:07;;;;;;;5.45;1.10;;;;;;;28.04;42.65;101637.31;5071648;28;20040;-52
2022/08/25 11:29:00;;;;;;;3.90;0.93;;;;;;;28.14;42.30;101636.50;5070789;28;20020;-52
2022/08/25 11:31:29;;;;;;;2.83;0.70;;;;;;;28.19;42.49;101639.16;5071981;28;20527;-52
2022/08/25 11:33:57;;;;;;;2.42;0.60;;;;;;;28.08;42.30;101635.56;5076367;28;20386;-52
2022/08/25 11:37:06;;;;;;;4.80;0.82;;;;;;;28.10;42.28;101642.63;5073035;28;20117;-52
2022/08/25 11:39:54;;;;;;;2.38;0.85;;;;;;;28.09;42.31;101629.41;5074978;28;20132;-50
2022/08/25 11:42:49;;;;;;;4.57;0.77;;;;;;;28.10;41.98;101644.41;5049739;28;20033;-49
2022/08/25 11:45:46;;;;;;;6.43;1.40;;;;;;;28.13;42.14;101641.78;5048904;28;20059;-52
2022/08/25 11:55:29;;;;;;;2.42;0.50;;;;;;;27.99;42.05;101655.72;5050675;28;20043;-53
2022/08/25 11:58:17;;;;;;;2.67;0.65;;;;;;;28.09;41.91;101645.25;5065084;28;20174;-51
2022/08/25 12:00:45;;;;;;;1.92;0.60;;;;;;;28.11;41.28;101644.41;5071785;28;20033;-51
2022/08/25 12:03:33;;;;;;;1.23;0.40;;;;;;;28.13;41.56;101652.34;5071837;28;20493;-52
2022/08/25 12:06:23;;;;;;;2.15;0.32;;;;;;;28.16;41.57;101655.88;5075984;28;20116;-52
2022/08/25 12:08:52;;;;;;;1.90;0.60;;;;;;;28.23;41.42;101662.06;5075746;28;20029;-53
2022/08/25 12:11:43;;;;;;;4.65;0.60;;;;;;;28.20;41.65;101667.31;5075703;28;20020;-49